LDI weather

Lindi Airport
Lindi, Lindi Region, Tanzania

Public forecast

Using degrees Celsius for public forecast. Weather courtesy of forecast.io.

Closest aviation weather report (METAR) to Lindi Airport

Closest report is Mtwara Airport, 38.6 nm (71.4 km) SE. Retrieved 2019/10/22 21:00 UTC (16 minutes ago):

HTMT 222100Z 00000KT 9999 FEW020 SCT070 25/24 Q1012

Closest aviation forecast (TAF) to Lindi Airport

Forecast is more than 12 hours old.

Closest forecast is Mtwara Airport, 38.6 nm (71.4 km) SE. Retrieved 2019/10/21 12:00 UTC (1 day ago):

TAF HTMT 211100Z 2112/2212 06010KT 9999 SCT023 BECMG 2208/2211 BKN025